Time;durP1;ratioP1;P1;durP2;ratioP2;P2;SDS_P1;SDS_P2;PMS_P1;PMS_P2;Temp;Humidity;BMP_temperature;BMP_pressure;BME280_temperature;BME280_humidity;BME280_pressure;Samples;Min_cycle;Max_cycle;Signal;HPM_P1;HPM_P2
2022/03/04 00:00:35;;;;;;;10.82;9.38;;;;;;;1.83;58.51;101264.03;5032848;27;20846;-71
2022/03/04 00:03:00;;;;;;;12.50;10.40;;;;;;;1.69;58.49;101270.72;5032570;28;20453;-71
2022/03/04 00:05:25;;;;;;;12.57;9.70;;;;;;;1.80;58.92;101272.00;5030948;27;20214;-71
2022/03/04 00:07:51;;;;;;;12.23;10.07;;;;;;;1.69;58.44;101280.28;5030114;28;20186;-73
2022/03/04 00:10:16;;;;;;;11.82;9.88;;;;;;;1.66;59.28;101270.81;5029779;27;20037;-71
2022/03/04 00:12:41;;;;;;;12.52;10.25;;;;;;;1.53;59.53;101270.50;4995054;27;20017;-70
2022/03/04 00:15:07;;;;;;;12.45;10.43;;;;;;;1.52;59.27;101262.75;5036406;27;20021;-71
2022/03/04 00:17:33;;;;;;;14.32;10.35;;;;;;;1.77;58.26;101269.53;5040355;27;20191;-71
2022/03/04 00:19:59;;;;;;;11.10;10.00;;;;;;;1.60;58.91;101265.88;5021666;27;20792;-71
2022/03/04 00:22:24;;;;;;;13.35;10.68;;;;;;;1.58;58.60;101266.84;5011613;27;20017;-70
2022/03/04 00:24:49;;;;;;;11.13;9.98;;;;;;;1.39;59.38;101269.41;5035813;27;20112;-71
2022/03/04 00:27:15;;;;;;;12.32;10.10;;;;;;;1.37;60.08;101285.13;5030943;27;20040;-70
2022/03/04 00:29:40;;;;;;;11.45;9.50;;;;;;;1.26;60.64;101280.34;5038141;27;20150;-71
2022/03/04 00:32:06;;;;;;;10.82;9.73;;;;;;;1.37;59.95;101278.13;5035090;27;20024;-71
2022/03/04 00:34:31;;;;;;;12.35;10.38;;;;;;;1.31;60.65;101281.00;5036670;27;20013;-70
2022/03/04 00:36:56;;;;;;;12.00;10.38;;;;;;;1.22;60.70;101277.94;5018052;27;20028;-71
2022/03/04 00:39:23;;;;;;;13.70;10.80;;;;;;;1.27;60.50;101289.88;5041734;27;20105;-70
2022/03/04 00:41:48;;;;;;;11.55;10.25;;;;;;;1.31;60.22;101285.38;5054881;27;20078;-71
2022/03/04 00:44:14;;;;;;;13.98;10.52;;;;;;;1.37;59.95;101285.97;5051147;27;21050;-71
2022/03/04 00:46:39;;;;;;;13.23;10.13;;;;;;;1.49;59.23;101279.38;5020951;27;20020;-71
2022/03/04 00:49:05;;;;;;;11.77;10.57;;;;;;;1.57;58.49;101284.28;5037447;27;20127;-71
2022/03/04 00:51:30;;;;;;;14.65;11.75;;;;;;;1.41;58.92;101289.31;5036361;27;20021;-71
2022/03/04 00:53:55;;;;;;;14.13;11.15;;;;;;;1.43;58.60;101281.41;5034097;27;20699;-71
2022/03/04 00:56:21;;;;;;;16.20;11.65;;;;;;;1.47;58.94;101286.44;5016667;27;20013;-72
2022/03/04 00:58:46;;;;;;;17.88;11.60;;;;;;;1.54;58.60;101289.63;5034871;27;20838;-71
2022/03/04 01:01:12;;;;;;;14.93;11.90;;;;;;;1.56;58.32;101295.63;5030620;27;20842;-71
2022/03/04 01:03:37;;;;;;;16.25;12.10;;;;;;;1.49;58.55;101295.03;5037708;27;20039;-71
2022/03/04 01:06:03;;;;;;;14.82;12.20;;;;;;;1.48;58.63;101302.91;5040497;27;20212;-70
2022/03/04 01:08:29;;;;;;;15.48;12.40;;;;;;;1.51;58.19;101293.22;5016854;27;20135;-71
2022/03/04 01:10:54;;;;;;;14.60;12.27;;;;;;;1.40;58.94;101291.94;5017120;27;20020;-70
2022/03/04 01:13:21;;;;;;;13.75;11.70;;;;;;;1.46;59.32;101294.31;5012671;27;20982;-71
2022/03/04 01:15:47;;;;;;;13.73;11.75;;;;;;;1.56;58.71;101287.78;4999179;28;20027;-71
2022/03/04 01:18:12;;;;;;;20.38;12.15;;;;;;;1.36;59.15;101294.69;4998072;28;20243;-71
2022/03/04 01:20:37;;;;;;;13.38;11.68;;;;;;;1.15;59.73;101291.22;5027831;27;20017;-71
2022/03/04 01:23:03;;;;;;;16.20;12.30;;;;;;;1.13;59.81;101292.19;5033367;27;20806;-70
2022/03/04 01:25:28;;;;;;;14.27;12.27;;;;;;;1.16;60.29;101292.91;5028745;27;20524;-71
2022/03/04 01:27:54;;;;;;;16.60;11.73;;;;;;;1.16;60.47;101297.28;5041318;27;20123;-71
2022/03/04 01:30:19;;;;;;;14.07;11.70;;;;;;;1.25;60.04;101291.69;5037992;27;20029;-71
2022/03/04 01:32:44;;;;;;;14.25;11.75;;;;;;;1.12;60.54;101295.72;5017373;27;20104;-71
2022/03/04 01:35:10;;;;;;;16.13;12.30;;;;;;;1.12;60.54;101295.72;4999167;27;20441;-71
2022/03/04 01:37:35;;;;;;;14.07;12.55;;;;;;;1.02;60.83;101300.44;4998325;27;20044;-73
2022/03/04 01:40:02;;;;;;;15.25;11.90;;;;;;;0.90;61.15;101286.13;5013053;27;20510;-72
2022/03/04 01:42:27;;;;;;;16.42;12.02;;;;;;;0.97;61.20;101295.44;4996719;27;20089;-73
2022/03/04 01:44:53;;;;;;;15.52;12.23;;;;;;;1.02;61.87;101298.69;5014450;27;20761;-70
2022/03/04 01:47:18;;;;;;;14.68;12.38;;;;;;;0.96;61.88;101301.53;5032638;27;20353;-70
2022/03/04 01:49:44;;;;;;;17.52;12.52;;;;;;;0.72;62.28;101284.25;4997243;27;20152;-70
2022/03/04 01:52:09;;;;;;;18.00;12.55;;;;;;;0.74;62.04;101292.88;5000635;27;20025;-70
2022/03/04 01:54:35;;;;;;;16.95;12.63;;;;;;;0.75;61.80;101297.16;5012601;27;20131;-71
2022/03/04 01:57:00;;;;;;;14.95;12.15;;;;;;;0.62;61.92;101292.44;5015727;27;20124;-70
2022/03/04 01:59:26;;;;;;;15.05;11.77;;;;;;;0.65;62.37;101294.09;5012643;27;20292;-71
2022/03/04 02:01:52;;;;;;;15.52;12.30;;;;;;;0.65;62.33;101289.72;5011597;27;20321;-70
2022/03/04 02:04:20;;;;;;;13.80;11.65;;;;;;;0.53;63.15;101284.97;5013670;27;20048;-70
2022/03/04 02:06:45;;;;;;;13.57;11.40;;;;;;;0.80;62.54;101288.25;5019240;27;20407;-69
2022/03/04 02:09:10;;;;;;;16.58;11.85;;;;;;;0.87;62.43;101294.06;5012772;27;20742;-70
2022/03/04 02:11:38;;;;;;;14.55;11.68;;;;;;;0.71;62.27;101293.00;5030989;27;20603;-70
2022/03/04 02:14:04;;;;;;;13.70;11.35;;;;;;;0.74;62.35;101290.28;5037982;27;20021;-70
2022/03/04 02:16:34;;;;;;;14.13;11.10;;;;;;;0.81;62.30;101286.50;5033694;27;20282;-70
2022/03/04 02:19:00;;;;;;;14.77;11.80;;;;;;;0.75;62.61;101282.41;5016264;27;20810;-70
2022/03/04 02:21:26;;;;;;;14.45;11.48;;;;;;;0.67;62.80;101293.09;5013971;27;20025;-70
2022/03/04 02:23:51;;;;;;;13.05;11.13;;;;;;;0.63;62.82;101288.06;5013999;27;20020;-70
2022/03/04 02:26:17;;;;;;;16.00;11.70;;;;;;;0.72;62.33;101287.72;4998117;27;20020;-70
2022/03/04 02:28:42;;;;;;;14.70;11.48;;;;;;;0.71;62.59;101290.41;5018127;27;20044;-70
2022/03/04 02:31:07;;;;;;;14.15;11.70;;;;;;;0.53;63.25;101292.78;4995451;28;20901;-71
2022/03/04 02:33:33;;;;;;;14.27;11.80;;;;;;;0.57;63.37;101296.97;5012084;28;20513;-71
2022/03/04 02:35:58;;;;;;;14.07;11.27;;;;;;;0.62;63.48;101288.97;5010556;28;20479;-70
2022/03/04 02:38:24;;;;;;;14.63;11.82;;;;;;;0.55;63.55;101284.91;4989726;28;20039;-70
2022/03/04 02:40:49;;;;;;;16.48;11.88;;;;;;;0.39;63.89;101282.06;4974464;28;20018;-71
2022/03/04 02:43:14;;;;;;;16.30;13.00;;;;;;;0.45;63.40;101276.59;4993211;28;20029;-70
2022/03/04 02:45:40;;;;;;;15.73;12.13;;;;;;;0.44;63.45;101277.53;4977135;28;20032;-71
2022/03/04 02:48:05;;;;;;;14.77;12.32;;;;;;;0.40;63.64;101275.94;5013624;27;20022;-70
2022/03/04 02:50:31;;;;;;;14.45;12.05;;;;;;;0.53;63.38;101279.75;4993108;28;20010;-70
2022/03/04 02:52:56;;;;;;;15.35;11.98;;;;;;;0.43;63.56;101281.03;5013363;28;20138;-70
2022/03/04 02:55:22;;;;;;;13.57;11.85;;;;;;;0.41;63.77;101288.03;4990210;28;20063;-70
2022/03/04 02:57:47;;;;;;;15.48;12.05;;;;;;;0.48;63.95;101284.28;5011567;27;20033;-71
2022/03/04 03:00:14;;;;;;;14.70;11.82;;;;;;;0.31;64.51;101284.94;5010125;28;20784;-70
2022/03/04 03:02:40;;;;;;;17.33;12.02;;;;;;;0.40;64.07;101287.19;4990616;28;20018;-71
2022/03/04 03:05:06;;;;;;;14.77;12.00;;;;;;;0.41;63.65;101283.69;4991898;28;20005;-70
2022/03/04 03:07:32;;;;;;;14.90;12.30;;;;;;;0.50;63.57;101279.88;4974630;28;20025;-70
2022/03/04 03:09:57;;;;;;;14.48;11.75;;;;;;;0.37;64.07;101281.25;4991160;28;20429;-72
2022/03/04 03:12:22;;;;;;;15.73;12.18;;;;;;;0.28;64.20;101283.31;5010020;28;20574;-72
2022/03/04 03:14:48;;;;;;;16.85;12.50;;;;;;;0.46;63.81;101283.50;4974795;28;20025;-72
2022/03/04 03:17:13;;;;;;;15.35;12.52;;;;;;;0.23;64.29;101279.19;4975602;28;20033;-72
2022/03/04 03:19:39;;;;;;;15.85;12.45;;;;;;;0.16;64.59;101284.59;4994884;28;20935;-70
2022/03/04 03:22:04;;;;;;;14.55;11.98;;;;;;;0.34;63.85;101282.25;5010543;28;20017;-70
2022/03/04 03:24:30;;;;;;;15.98;11.98;;;;;;;0.21;64.96;101281.81;5011167;28;20418;-70
2022/03/04 03:26:55;;;;;;;14.90;12.23;;;;;;;0.13;65.72;101279.50;4999281;27;20782;-70
2022/03/04 03:29:20;;;;;;;15.70;12.48;;;;;;;0.03;65.84;101279.91;4975772;28;20045;-70
2022/03/04 03:31:46;;;;;;;18.00;12.27;;;;;;;-0.02;66.34;101274.88;4975455;28;20006;-70
2022/03/04 03:34:11;;;;;;;15.90;12.20;;;;;;;-0.06;66.05;101284.53;5012902;28;20022;-71
2022/03/04 03:36:37;;;;;;;16.75;12.52;;;;;;;-0.05;66.09;101285.41;5000778;28;20901;-71
2022/03/04 03:39:02;;;;;;;17.92;12.68;;;;;;;-0.19;66.05;101275.47;4990327;28;20026;-72
2022/03/04 03:41:28;;;;;;;16.55;12.73;;;;;;;-0.13;66.06;101271.81;5009053;28;20996;-72
2022/03/04 03:43:53;;;;;;;15.18;12.15;;;;;;;-0.17;66.16;101276.25;4994726;28;20025;-71
2022/03/04 03:46:19;;;;;;;16.10;12.60;;;;;;;-0.18;66.57;101284.97;4983585;28;20077;-70
2022/03/04 03:48:44;;;;;;;14.45;11.57;;;;;;;-0.19;66.61;101283.28;5015635;27;20010;-72
2022/03/04 03:51:10;;;;;;;15.05;12.18;;;;;;;-0.23;66.60;101281.69;5012151;28;20841;-70
2022/03/04 03:53:35;;;;;;;14.60;11.98;;;;;;;-0.18;66.73;101279.78;5013501;28;20235;-72
2022/03/04 03:56:01;;;;;;;14.57;12.18;;;;;;;-0.13;66.18;101282.22;4994911;28;20086;-70
2022/03/04 03:58:26;;;;;;;15.13;12.52;;;;;;;0.00;65.86;101286.09;4989031;28;20037;-70
2022/03/04 04:00:51;;;;;;;14.82;11.93;;;;;;;0.05;65.43;101291.13;4993659;28;20031;-70
2022/03/04 04:03:17;;;;;;;15.13;11.73;;;;;;;0.09;64.81;101279.69;4997710;28;20017;-70
2022/03/04 04:05:42;;;;;;;16.08;12.38;;;;;;;-0.08;65.23;101278.53;4997647;28;20028;-71
2022/03/04 04:08:08;;;;;;;16.83;12.40;;;;;;;0.03;65.31;101285.09;4993744;28;20013;-71
2022/03/04 04:10:33;;;;;;;16.38;12.15;;;;;;;0.12;64.84;101283.00;4991578;28;20025;-71
2022/03/04 04:12:58;;;;;;;15.45;12.30;;;;;;;-0.09;65.35;101287.25;5012958;28;20079;-73
2022/03/04 04:15:24;;;;;;;15.65;12.57;;;;;;;-0.20;65.80;101297.19;5014424;28;20036;-71
2022/03/04 04:17:49;;;;;;;15.43;12.30;;;;;;;0.06;64.98;101290.22;5014374;28;20294;-72
2022/03/04 04:20:15;;;;;;;15.35;12.57;;;;;;;-0.06;65.00;101294.09;4994490;28;20005;-72
2022/03/04 04:22:40;;;;;;;17.00;13.18;;;;;;;-0.29;65.51;101298.34;4993826;28;20013;-72
2022/03/04 04:25:06;;;;;;;15.80;12.93;;;;;;;-0.35;66.00;101301.19;4979257;28;20091;-72
2022/03/04 04:27:31;;;;;;;16.45;12.55;;;;;;;-0.20;65.88;101302.38;5020500;27;20029;-72
2022/03/04 04:29:56;;;;;;;15.40;12.05;;;;;;;-0.29;65.65;101306.16;5033102;27;20125;-72
2022/03/04 04:32:22;;;;;;;15.55;12.32;;;;;;;-0.44;66.62;101304.09;5033770;27;20023;-72
2022/03/04 04:34:47;;;;;;;15.52;12.27;;;;;;;-0.62;67.75;101308.16;5013502;27;20005;-72
2022/03/04 04:37:13;;;;;;;15.00;11.48;;;;;;;-0.61;68.18;101312.44;4981609;27;20915;-72
2022/03/04 04:39:38;;;;;;;14.02;11.05;;;;;;;-0.64;68.31;101303.00;5013009;27;20049;-72
2022/03/04 04:42:04;;;;;;;14.73;11.90;;;;;;;-0.67;68.84;101310.91;5030516;27;20025;-70
2022/03/04 04:44:29;;;;;;;18.35;12.15;;;;;;;-0.74;69.01;101312.84;5023455;27;20770;-72
2022/03/04 04:46:57;;;;;;;16.15;12.43;;;;;;;-0.77;69.06;101305.16;5029822;27;20821;-70
2022/03/04 04:49:24;;;;;;;15.98;12.48;;;;;;;-0.71;68.92;101309.31;5025114;27;20062;-70
2022/03/04 04:51:49;;;;;;;15.63;12.43;;;;;;;-0.82;69.03;101309.63;5030629;27;20982;-70
2022/03/04 04:54:14;;;;;;;16.88;12.82;;;;;;;-0.85;69.18;101312.34;5014520;27;20025;-70
2022/03/04 04:56:40;;;;;;;15.77;12.65;;;;;;;-0.85;69.64;101314.09;4983136;27;20602;-72
2022/03/04 04:59:06;;;;;;;17.15;11.95;;;;;;;-0.78;69.28;101310.41;4981097;27;20724;-72
2022/03/04 05:01:31;;;;;;;16.42;12.98;;;;;;;-0.79;68.78;101314.75;5015745;27;20024;-71
2022/03/04 05:03:56;;;;;;;21.80;12.57;;;;;;;-0.89;69.04;101315.94;5000335;27;20044;-70
2022/03/04 05:06:22;;;;;;;17.20;13.25;;;;;;;-0.85;68.59;101314.09;5030989;27;20012;-72
2022/03/04 05:08:48;;;;;;;14.93;12.57;;;;;;;-0.88;68.08;101320.25;5011892;27;20032;-72
2022/03/04 05:11:13;;;;;;;15.95;12.93;;;;;;;-0.92;68.50;101313.44;5031389;27;20013;-74
2022/03/04 05:13:39;;;;;;;15.35;12.60;;;;;;;-0.92;68.74;101321.25;4982021;28;20022;-73
2022/03/04 05:16:04;;;;;;;16.52;12.13;;;;;;;-0.96;68.96;101325.69;4980035;27;20075;-70
2022/03/04 05:18:31;;;;;;;18.40;12.27;;;;;;;-1.02;69.32;101317.25;5036162;27;20116;-70
2022/03/04 05:20:56;;;;;;;18.13;13.25;;;;;;;-1.04;69.55;101331.13;4988835;28;20040;-72
2022/03/04 05:26:06;;;;;;;17.17;13.50;;;;;;;-0.99;69.12;101332.72;5015585;27;20067;-71
2022/03/04 05:28:31;;;;;;;15.85;12.50;;;;;;;-0.95;68.61;101331.72;5000165;27;20048;-73
2022/03/04 05:30:57;;;;;;;17.60;13.13;;;;;;;-1.06;68.63;101317.34;5033461;27;20029;-70
2022/03/04 05:33:22;;;;;;;18.00;13.25;;;;;;;-1.10;68.44;101328.72;5031901;27;20429;-72
2022/03/04 05:35:48;;;;;;;16.83;13.07;;;;;;;-1.08;68.46;101332.09;4998022;27;20509;-72
2022/03/04 05:38:13;;;;;;;16.70;13.65;;;;;;;-1.01;68.00;101337.13;5028794;27;20125;-69
2022/03/04 05:40:38;;;;;;;18.27;13.90;;;;;;;-1.02;68.04;101338.03;4994012;27;20024;-72
2022/03/04 05:43:04;;;;;;;18.17;13.68;;;;;;;-0.99;67.88;101330.13;5018642;27;20558;-72
2022/03/04 05:45:29;;;;;;;18.73;13.40;;;;;;;-1.00;67.79;101331.00;5002874;27;20451;-72
2022/03/04 05:47:55;;;;;;;15.77;12.93;;;;;;;-1.06;68.32;101332.94;5030471;27;20032;-71
2022/03/04 05:50:20;;;;;;;18.77;13.02;;;;;;;-1.06;68.70;101342.44;5022006;27;20503;-73
2022/03/04 05:52:46;;;;;;;18.23;13.68;;;;;;;-1.18;69.06;101343.69;5002885;27;20025;-72
2022/03/04 05:55:11;;;;;;;15.65;12.65;;;;;;;-0.96;68.75;101343.88;4988013;27;20538;-71
2022/03/04 05:57:36;;;;;;;17.73;13.27;;;;;;;-0.78;67.95;101351.97;5017986;27;20017;-71
2022/03/04 06:00:03;;;;;;;19.45;12.73;;;;;;;-0.92;68.50;101365.41;5015516;27;20081;-73
2022/03/04 06:02:28;;;;;;;16.88;13.13;;;;;;;-0.88;68.23;101356.63;4991851;27;20067;-70
2022/03/04 06:04:54;;;;;;;17.35;13.02;;;;;;;-1.10;69.32;101359.88;5034995;27;20036;-72
2022/03/04 06:07:19;;;;;;;18.58;13.45;;;;;;;-1.24;69.47;101364.63;5001022;27;20230;-73
2022/03/04 06:09:45;;;;;;;18.50;13.05;;;;;;;-1.21;69.11;101368.00;5012432;27;20123;-72
2022/03/04 06:12:10;;;;;;;19.90;12.88;;;;;;;-1.20;69.55;101366.22;5038711;27;20017;-69
2022/03/04 06:14:36;;;;;;;16.63;12.73;;;;;;;-1.23;69.55;101375.00;5008883;27;20025;-71
2022/03/04 06:17:01;;;;;;;18.33;13.38;;;;;;;-1.26;69.79;101376.81;5033581;27;20033;-70
2022/03/04 06:19:26;;;;;;;16.83;13.30;;;;;;;-1.27;70.37;101367.31;5000416;27;20087;-71
2022/03/04 06:21:52;;;;;;;17.08;12.70;;;;;;;-1.27;70.69;101372.50;5033375;27;20021;-70
2022/03/04 06:24:17;;;;;;;14.93;12.38;;;;;;;-1.30;71.15;101381.22;5040835;27;20785;-71
2022/03/04 06:26:42;;;;;;;15.55;12.30;;;;;;;-1.33;71.19;101375.28;5020739;27;20023;-71
2022/03/04 06:29:08;;;;;;;19.25;12.95;;;;;;;-1.34;71.50;101376.19;5028592;27;20107;-71
2022/03/04 06:31:33;;;;;;;16.40;12.23;;;;;;;-1.36;71.22;101373.63;5034181;27;20014;-71
2022/03/04 06:33:59;;;;;;;16.75;13.05;;;;;;;-1.32;71.21;101375.25;5003219;27;20231;-70
2022/03/04 06:36:24;;;;;;;16.30;12.70;;;;;;;-1.30;71.00;101383.00;5000875;27;20013;-70
2022/03/04 06:38:50;;;;;;;16.08;12.77;;;;;;;-1.31;71.37;101378.69;5034610;27;20036;-72
2022/03/04 06:41:15;;;;;;;17.95;13.30;;;;;;;-1.19;70.80;101380.09;5015524;27;20017;-69
2022/03/04 06:43:41;;;;;;;16.55;12.77;;;;;;;-1.20;70.50;101387.00;5035213;27;20033;-70
2022/03/04 06:46:06;;;;;;;18.23;12.88;;;;;;;-1.17;70.66;101399.06;4999530;27;20341;-70
2022/03/04 06:48:32;;;;;;;16.65;12.23;;;;;;;-1.18;70.57;101406.00;5032393;27;20137;-70
2022/03/04 06:50:57;;;;;;;15.38;12.80;;;;;;;-1.00;70.69;101403.75;5019209;27;20798;-70
2022/03/04 06:53:24;;;;;;;16.92;12.85;;;;;;;-1.01;70.93;101408.09;5014487;27;20032;-70
2022/03/04 06:55:49;;;;;;;20.35;13.10;;;;;;;-1.04;70.84;101403.84;5033715;27;20197;-70
2022/03/04 06:58:16;;;;;;;16.05;12.55;;;;;;;-0.99;70.68;101410.66;5007611;27;20801;-71
2022/03/04 07:00:41;;;;;;;18.08;13.02;;;;;;;-0.96;70.29;101411.44;5032218;27;20760;-71
2022/03/04 07:03:07;;;;;;;16.65;12.18;;;;;;;-0.95;70.30;101407.06;5016051;27;20077;-71
2022/03/04 07:05:32;;;;;;;16.33;12.20;;;;;;;-0.84;70.14;101414.53;5031850;27;20015;-71
2022/03/04 07:07:58;;;;;;;16.30;12.57;;;;;;;-0.52;69.45;101431.75;5033459;27;20025;-71
2022/03/04 07:10:23;;;;;;;16.33;11.88;;;;;;;-0.46;69.31;101430.69;5016532;27;20491;-71
2022/03/04 07:12:49;;;;;;;17.92;12.55;;;;;;;-0.52;69.38;101434.34;5012434;28;20335;-70
2022/03/04 07:15:14;;;;;;;16.08;12.77;;;;;;;-0.50;69.51;101437.72;5000520;27;20021;-72
2022/03/04 07:17:40;;;;;;;17.08;12.27;;;;;;;-0.44;69.52;101434.91;5017399;28;20033;-72
2022/03/04 07:20:06;;;;;;;15.63;12.07;;;;;;;-0.50;70.10;101444.69;5009970;27;20063;-71
2022/03/04 07:22:32;;;;;;;15.95;12.65;;;;;;;-0.39;70.10;101446.03;5030188;27;20009;-69
2022/03/04 07:24:57;;;;;;;19.02;12.43;;;;;;;-0.27;70.11;101447.41;5038985;27;20029;-70
2022/03/04 07:27:23;;;;;;;18.30;12.55;;;;;;;-0.21;70.27;101438.56;5025352;27;20244;-70
2022/03/04 07:29:48;;;;;;;15.43;11.98;;;;;;;-0.17;70.29;101447.94;5015397;27;20078;-72
2022/03/04 07:32:13;;;;;;;15.18;12.10;;;;;;;-0.07;70.38;101444.16;5039724;27;20020;-71
2022/03/04 07:34:39;;;;;;;16.92;13.68;;;;;;;0.04;69.76;101445.53;5021303;27;20682;-70
2022/03/04 07:37:05;;;;;;;16.52;13.52;;;;;;;0.20;69.42;101430.22;5020646;27;20738;-70
2022/03/04 07:39:30;;;;;;;17.35;12.85;;;;;;;0.43;68.67;101443.31;5018372;27;20918;-71
2022/03/04 07:41:56;;;;;;;14.82;12.52;;;;;;;0.53;68.73;101441.22;5015052;27;20025;-71
2022/03/04 07:44:21;;;;;;;18.75;13.45;;;;;;;0.66;68.56;101439.88;4987273;27;20135;-70
2022/03/04 07:46:47;;;;;;;18.25;12.90;;;;;;;0.85;68.36;101439.22;5040008;27;20013;-71
2022/03/04 07:49:12;;;;;;;19.58;13.60;;;;;;;1.06;67.40;101444.50;5019445;27;20822;-70
2022/03/04 07:51:38;;;;;;;16.90;13.60;;;;;;;1.20;66.85;101450.06;5044033;27;20141;-71
2022/03/04 07:54:03;;;;;;;18.33;13.63;;;;;;;1.36;65.72;101456.34;5036111;27;20013;-71
2022/03/04 07:56:29;;;;;;;19.20;14.63;;;;;;;1.47;64.81;101449.91;5020425;27;21014;-71
2022/03/04 07:58:54;;;;;;;20.00;14.13;;;;;;;1.65;64.11;101446.53;5038032;27;20033;-69
2022/03/04 08:01:20;;;;;;;19.75;13.38;;;;;;;1.81;62.77;101445.94;5005423;27;20025;-70
2022/03/04 08:03:46;;;;;;;18.50;14.18;;;;;;;1.96;61.75;101450.50;5037405;27;20087;-70
2022/03/04 08:06:12;;;;;;;19.92;13.80;;;;;;;2.15;61.67;101449.75;5020724;27;20009;-70
2022/03/04 08:08:37;;;;;;;16.38;13.70;;;;;;;2.34;60.81;101458.47;5038765;27;20012;-70
2022/03/04 08:11:03;;;;;;;22.92;14.10;;;;;;;2.52;59.56;101458.59;5035047;27;20012;-70
2022/03/04 08:13:28;;;;;;;17.58;13.68;;;;;;;2.73;59.39;101460.25;5025852;27;20037;-71
2022/03/04 08:15:54;;;;;;;19.55;14.30;;;;;;;2.80;58.40;101458.22;5023519;27;20013;-71
2022/03/04 08:18:19;;;;;;;19.83;14.15;;;;;;;2.91;58.25;101449.91;4989736;27;20392;-72
2022/03/04 08:20:45;;;;;;;19.65;15.02;;;;;;;3.04;57.11;101451.00;5038077;27;20259;-69
2022/03/04 08:23:13;;;;;;;19.88;14.57;;;;;;;3.13;56.44;101438.44;5023295;27;20137;-70
2022/03/04 08:25:39;;;;;;;20.40;15.00;;;;;;;3.37;56.25;101447.75;5028688;27;20098;-70
2022/03/04 08:28:04;;;;;;;22.25;15.95;;;;;;;3.50;55.58;101447.16;5022651;27;20178;-70
2022/03/04 08:30:30;;;;;;;20.52;14.63;;;;;;;3.65;54.72;101450.81;5021019;27;20050;-70
2022/03/04 08:32:55;;;;;;;20.25;15.20;;;;;;;3.78;54.78;101447.53;5040688;27;20681;-70
2022/03/04 08:35:20;;;;;;;21.55;15.73;;;;;;;4.00;54.42;101451.69;5001887;27;20028;-70
2022/03/04 08:37:46;;;;;;;20.75;15.23;;;;;;;4.21;54.34;101452.38;5019721;27;20929;-71
2022/03/04 08:40:12;;;;;;;20.52;15.65;;;;;;;4.30;53.14;101451.03;5037551;27;20120;-72
2022/03/04 08:42:38;;;;;;;21.42;16.10;;;;;;;4.47;53.18;101456.28;5022923;27;20647;-72
2022/03/04 08:45:04;;;;;;;21.95;15.90;;;;;;;4.66;52.48;101457.94;5007744;27;20103;-70
2022/03/04 08:47:29;;;;;;;20.77;16.45;;;;;;;4.93;52.17;101457.41;5035671;27;20106;-69
2022/03/04 08:49:55;;;;;;;22.30;16.70;;;;;;;5.10;52.06;101454.69;5025952;27;20509;-70
2022/03/04 08:52:20;;;;;;;23.42;16.90;;;;;;;5.23;50.05;101459.28;5017281;27;20795;-70
2022/03/04 08:54:46;;;;;;;23.17;17.05;;;;;;;5.49;49.18;101450.78;5041784;27;20572;-70
2022/03/04 08:57:12;;;;;;;21.13;17.20;;;;;;;5.86;48.97;101453.09;5019886;27;20150;-70
2022/03/04 08:59:38;;;;;;;23.30;16.80;;;;;;;6.18;48.72;101464.41;5037761;27;20044;-71
2022/03/04 09:02:04;;;;;;;22.75;17.90;;;;;;;6.28;46.96;101454.19;5015053;27;20156;-72
2022/03/04 09:04:29;;;;;;;21.20;18.02;;;;;;;6.34;47.00;101463.47;5011213;27;20013;-71
2022/03/04 09:06:55;;;;;;;20.67;17.35;;;;;;;6.71;46.91;101456.00;5041391;27;20024;-72
2022/03/04 09:09:20;;;;;;;21.95;17.15;;;;;;;7.03;46.29;101450.53;5020675;27;21262;-71
2022/03/04 09:11:45;;;;;;;22.60;17.52;;;;;;;7.40;46.22;101456.06;5024986;27;20036;-71
2022/03/04 09:14:11;;;;;;;21.60;17.63;;;;;;;7.94;45.47;101460.50;5024576;27;20146;-71
2022/03/04 09:16:36;;;;;;;25.33;18.92;;;;;;;7.93;43.60;101450.06;5001159;27;20021;-71
2022/03/04 09:19:02;;;;;;;22.77;18.15;;;;;;;8.14;42.86;101448.63;5024807;27;20153;-70
2022/03/04 09:21:28;;;;;;;24.02;19.05;;;;;;;8.41;40.44;101445.03;5037929;27;20024;-70
2022/03/04 09:23:53;;;;;;;24.05;19.13;;;;;;;8.61;40.56;101443.69;5022702;27;20538;-70
2022/03/04 09:26:19;;;;;;;23.50;18.48;;;;;;;9.08;40.54;101443.91;5020426;27;20016;-71
2022/03/04 09:28:44;;;;;;;25.02;19.42;;;;;;;9.41;38.29;101445.94;5040765;27;20055;-70
2022/03/04 09:31:09;;;;;;;23.70;19.20;;;;;;;9.40;38.46;101451.31;4984338;27;20020;-73
2022/03/04 09:33:35;;;;;;;25.60;19.13;;;;;;;9.92;39.05;101434.25;5017333;27;20374;-70
2022/03/04 09:36:00;;;;;;;22.85;18.73;;;;;;;10.30;38.42;101437.59;5019375;27;20779;-71
2022/03/04 09:38:26;;;;;;;26.40;18.92;;;;;;;10.02;36.71;101442.34;5033666;27;20033;-70
2022/03/04 09:40:52;;;;;;;23.30;18.52;;;;;;;10.40;35.74;101445.69;5038365;27;20044;-70
2022/03/04 09:43:18;;;;;;;24.63;18.95;;;;;;;10.34;36.28;101443.50;5015891;27;20086;-69
2022/03/04 09:45:47;;;;;;;23.13;18.60;;;;;;;10.98;37.37;101437.63;5015698;27;20803;-70
2022/03/04 09:48:12;;;;;;;22.52;18.05;;;;;;;11.51;34.30;101439.56;5033187;27;20260;-70
2022/03/04 09:50:38;;;;;;;22.50;18.65;;;;;;;11.30;35.36;101435.03;5042243;27;20021;-70
2022/03/04 09:53:09;;;;;;;27.88;19.85;;;;;;;11.50;34.32;101449.31;5033998;27;20406;-70
2022/03/04 09:55:34;;;;;;;20.80;18.50;;;;;;;11.93;32.96;101442.28;5002075;27;20904;-69
2022/03/04 09:57:59;;;;;;;25.25;19.20;;;;;;;12.12;32.10;101446.06;5017153;27;20041;-70
2022/03/04 10:00:25;;;;;;;20.48;18.02;;;;;;;12.66;31.75;101444.13;5005179;27;20025;-70
2022/03/04 10:02:50;;;;;;;23.63;18.20;;;;;;;12.25;31.38;101443.22;5000080;27;20345;-71
2022/03/04 10:05:16;;;;;;;23.02;18.83;;;;;;;13.20;31.79;101442.06;5037312;27;20017;-71
2022/03/04 10:07:42;;;;;;;23.73;19.48;;;;;;;12.87;31.04;101441.41;5020502;27;20020;-71
2022/03/04 10:10:12;;;;;;;21.23;18.85;;;;;;;12.78;30.56;101444.88;5017286;27;20082;-71
2022/03/04 10:12:49;;;;;;;22.70;19.67;;;;;;;13.43;30.51;101455.16;4997483;27;20021;-71
2022/03/04 10:15:14;;;;;;;21.67;18.77;;;;;;;14.00;30.82;101447.28;4999919;27;20037;-71
2022/03/04 10:17:39;;;;;;;23.50;18.83;;;;;;;14.21;29.06;101445.31;5038344;27;21022;-70
2022/03/04 10:20:07;;;;;;;21.92;18.42;;;;;;;14.30;28.42;101438.28;5002014;27;20009;-70
2022/03/04 10:22:45;;;;;;;23.30;18.63;;;;;;;14.25;28.57;101446.69;4982104;27;20025;-71
2022/03/04 10:25:24;;;;;;;21.77;18.50;;;;;;;14.53;28.65;101430.78;5034240;27;20205;-71
2022/03/04 10:27:49;;;;;;;20.48;18.25;;;;;;;14.14;28.59;101441.53;5027636;27;20037;-71
2022/03/04 10:30:15;;;;;;;19.63;17.52;;;;;;;14.84;28.39;101440.38;5018589;27;20203;-72
2022/03/04 10:32:41;;;;;;;20.70;18.05;;;;;;;15.35;27.62;101438.09;4996505;27;20037;-71
2022/03/04 10:35:08;;;;;;;20.65;17.90;;;;;;;16.02;27.24;101430.56;5018278;27;20016;-72
2022/03/04 10:37:54;;;;;;;19.88;17.73;;;;;;;16.76;26.33;101430.94;5039711;27;20480;-71
2022/03/04 10:40:23;;;;;;;22.33;18.83;;;;;;;16.73;26.68;101423.25;5015873;27;20055;-71
2022/03/04 10:42:56;;;;;;;20.38;17.92;;;;;;;16.69;26.27;101423.75;5035236;27;20013;-71
2022/03/04 10:45:40;;;;;;;21.95;18.35;;;;;;;16.23;25.65;101424.00;5037107;27;20136;-72
2022/03/04 10:48:07;;;;;;;19.83;17.70;;;;;;;16.76;25.12;101417.59;5034273;27;20023;-73
2022/03/04 10:50:34;;;;;;;24.92;17.85;;;;;;;17.00;25.31;101418.72;5013174;27;20534;-72
2022/03/04 10:53:03;;;;;;;21.58;17.63;;;;;;;16.42;25.67;101421.09;5016717;27;20012;-71
2022/03/04 10:55:33;;;;;;;19.98;17.80;;;;;;;17.15;24.68;101417.09;5024299;27;20017;-71
2022/03/04 10:58:01;;;;;;;19.95;17.65;;;;;;;18.10;23.75;101414.97;5020629;27;20156;-72
2022/03/04 11:00:36;;;;;;;18.98;17.08;;;;;;;17.69;23.35;101407.78;5000232;27;20031;-71
2022/03/04 11:03:02;;;;;;;19.92;16.50;;;;;;;18.35;24.24;101413.09;5021907;27;20439;-74
2022/03/04 11:05:28;;;;;;;21.38;18.80;;;;;;;17.99;24.88;101405.44;5032542;27;20025;-71
2022/03/04 11:07:53;;;;;;;18.67;16.70;;;;;;;19.52;24.07;101405.13;5030413;27;20069;-72
2022/03/04 11:10:19;;;;;;;18.83;16.83;;;;;;;20.10;22.66;101417.25;5000665;27;20032;-71